createdAt,value
2022-07-31T04:30:13.569Z,2.70
2022-07-31T05:29:10.337Z,4.10
2022-07-31T07:44:24.182Z,7.00
2022-07-31T07:49:16.575Z,6.90
2022-07-31T07:54:00.611Z,7.30
2022-07-31T07:58:11.376Z,6.20
2022-07-31T08:03:47.395Z,7.90
2022-07-31T08:07:41.906Z,6.50
2022-07-31T08:12:09.384Z,6.20
2022-07-31T08:16:37.555Z,5.80
2022-07-31T08:20:40.871Z,6.20
2022-07-31T08:24:43.982Z,5.70
2022-07-31T08:28:52.311Z,6.00
2022-07-31T08:32:57.911Z,4.90
2022-07-31T08:37:52.048Z,5.30
2022-07-31T08:41:44.382Z,5.00
2022-07-31T08:45:49.209Z,5.70
2022-07-31T08:50:01.255Z,5.20
2022-07-31T08:54:08.654Z,5.70
2022-07-31T08:58:12.495Z,5.50
2022-07-31T09:02:15.573Z,5.80
2022-07-31T09:06:37.536Z,6.80
2022-07-31T09:10:40.169Z,6.60
2022-07-31T09:14:48.883Z,6.00
2022-07-31T09:19:52.013Z,5.90
2022-07-31T09:23:29.841Z,6.90
2022-07-31T09:27:32.183Z,7.20
2022-07-31T09:31:35.532Z,6.70
2022-07-31T09:36:00.923Z,7.60
2022-07-31T09:40:04.222Z,8.10
2022-07-31T09:44:44.159Z,8.20
2022-07-31T09:48:56.689Z,9.70
2022-07-31T09:53:03.553Z,9.30
2022-07-31T09:57:12.155Z,8.80
2022-07-31T10:01:18.176Z,11.00
2022-07-31T10:05:27.500Z,10.30
2022-07-31T10:09:33.557Z,9.60
2022-07-31T10:14:00.139Z,8.90
2022-07-31T10:18:05.372Z,8.30
2022-07-31T10:22:20.020Z,8.90
2022-07-31T10:26:39.151Z,8.90
2022-07-31T10:30:47.864Z,9.20
2022-07-31T10:34:50.647Z,8.10
2022-07-31T10:39:28.187Z,8.80
2022-07-31T10:43:51.195Z,7.60
2022-07-31T10:48:14.686Z,8.50
2022-07-31T10:52:34.278Z,7.90
2022-07-31T10:57:01.244Z,8.00
2022-07-31T11:01:17.654Z,7.70
2022-07-31T11:06:02.574Z,7.90
2022-07-31T11:10:20.937Z,6.90
2022-07-31T11:14:41.578Z,7.70
2022-07-31T11:19:16.199Z,7.50
2022-07-31T11:23:18.652Z,7.30
2022-07-31T11:27:33.984Z,7.10
2022-07-31T11:31:36.778Z,7.70
2022-07-31T11:35:39.070Z,6.70
2022-07-31T11:39:51.365Z,6.70
2022-07-31T11:43:55.476Z,6.20
2022-07-31T11:48:12.159Z,5.70
2022-07-31T11:52:31.011Z,6.10
2022-07-31T11:56:39.118Z,6.30
2022-07-31T12:01:07.769Z,5.20
2022-07-31T12:05:13.180Z,4.20
2022-07-31T12:10:00.621Z,4.40
2022-07-31T12:13:38.453Z,3.20
2022-07-31T12:17:41.083Z,3.50
2022-07-31T12:21:43.591Z,3.60
2022-07-31T12:25:46.197Z,2.70
2022-07-31T12:29:48.475Z,2.80
2022-07-31T12:33:50.845Z,2.50
2022-07-31T12:37:53.572Z,2.80
2022-07-31T12:41:56.820Z,2.60
2022-07-31T12:46:04.942Z,2.60
2022-07-31T12:50:07.829Z,2.70
2022-07-31T12:54:10.157Z,3.00
2022-07-31T12:58:12.358Z,2.60
2022-07-31T13:02:14.652Z,3.00
2022-07-31T13:06:16.956Z,2.80
2022-07-31T13:10:23.874Z,2.50
2022-07-31T13:14:27.830Z,2.40
2022-07-31T13:18:31.424Z,3.00
2022-07-31T13:22:33.842Z,2.10
2022-07-31T13:26:37.521Z,2.00
2022-07-31T13:30:39.780Z,1.90
2022-07-31T13:34:42.077Z,2.00
2022-07-31T13:38:44.301Z,1.90
2022-07-31T13:42:46.538Z,1.90
2022-07-31T13:47:51.445Z,1.70
2022-07-31T13:52:46.883Z,1.80
2022-07-31T13:57:23.603Z,1.70
2022-07-31T14:02:26.932Z,2.00
2022-07-31T14:07:45.020Z,2.30
2022-07-31T14:11:57.608Z,2.10
2022-07-31T14:16:58.085Z,2.30
2022-07-31T14:21:18.920Z,2.50
2022-07-31T14:25:31.234Z,2.50
2022-07-31T14:29:36.984Z,2.40
2022-07-31T14:34:17.316Z,2.50
2022-07-31T14:38:56.261Z,2.90
2022-07-31T14:43:29.089Z,3.10
2022-07-31T14:47:38.640Z,3.60
2022-07-31T15:02:57.363Z,2.80
2022-07-31T15:07:32.602Z,2.80
2022-07-31T15:11:58.207Z,3.50
2022-07-31T15:16:19.536Z,3.00
2022-07-31T15:20:32.960Z,3.10
2022-07-31T15:24:41.230Z,2.70
2022-07-31T15:29:14.743Z,3.10
2022-07-31T15:33:45.404Z,2.80
2022-07-31T15:38:29.636Z,2.90
2022-07-31T15:42:40.827Z,3.60
2022-07-31T15:46:44.300Z,3.00
2022-07-31T15:50:46.731Z,3.50
2022-07-31T15:54:52.277Z,3.30
2022-07-31T15:58:54.760Z,3.60
2022-07-31T16:02:57.004Z,3.30
2022-07-31T16:08:32.409Z,3.00
2022-07-31T16:11:24.955Z,3.30
2022-07-31T16:15:47.178Z,2.70
2022-07-31T16:19:50.896Z,2.60
2022-07-31T16:23:53.324Z,2.70
2022-07-31T16:27:55.738Z,3.40
2022-07-31T16:31:58.129Z,3.00
2022-07-31T16:36:00.435Z,3.00
2022-07-31T16:40:04.510Z,2.60
2022-07-31T16:44:06.906Z,2.70
2022-07-31T16:48:09.180Z,3.20
2022-07-31T16:52:12.907Z,3.00
2022-07-31T16:56:16.311Z,3.00
2022-07-31T17:00:20.342Z,3.40
2022-07-31T17:04:24.669Z,4.50
2022-07-31T17:08:28.506Z,2.70
2022-07-31T17:12:30.764Z,3.80
2022-07-31T17:16:33.122Z,3.40
2022-07-31T17:20:36.849Z,2.60
2022-07-31T17:24:49.991Z,3.00
2022-07-31T17:28:52.197Z,2.60
2022-07-31T17:32:54.363Z,3.60
2022-07-31T17:36:56.671Z,3.00
2022-07-31T17:40:59.964Z,2.30
2022-07-31T17:45:02.717Z,2.40
2022-07-31T17:49:07.828Z,2.50
2022-07-31T17:53:14.480Z,2.20
2022-07-31T17:57:21.219Z,2.50
2022-07-31T18:01:29.085Z,2.70
2022-07-31T18:05:44.205Z,2.50
2022-07-31T18:09:46.623Z,2.70
2022-07-31T18:13:51.761Z,2.80
2022-07-31T18:17:57.987Z,2.80
2022-07-31T18:22:19.475Z,2.80
2022-07-31T18:26:44.460Z,3.20
2022-07-31T18:35:29.451Z,3.60
2022-07-31T18:39:59.226Z,3.10
2022-07-31T18:44:07.663Z,2.90
2022-07-31T18:48:11.701Z,2.60
2022-07-31T18:52:14.155Z,2.50
2022-07-31T18:56:16.634Z,2.80
2022-07-31T19:00:19.228Z,3.10
2022-07-31T19:04:23.283Z,2.10
2022-07-31T19:08:28.300Z,2.40
2022-07-31T19:12:33.724Z,2.10
2022-07-31T19:16:36.269Z,2.20
2022-07-31T19:20:58.914Z,2.40
2022-07-31T19:26:04.685Z,2.40
2022-07-31T19:30:58.484Z,2.80
2022-07-31T19:35:22.734Z,2.80
2022-07-31T19:40:10.693Z,3.10
2022-07-31T19:44:48.813Z,3.30
2022-07-31T19:48:53.818Z,3.50
2022-07-31T19:53:00.452Z,3.70
2022-07-31T19:57:03.171Z,3.80
2022-07-31T20:01:06.313Z,3.30
2022-07-31T20:05:12.975Z,4.60
2022-07-31T20:09:15.484Z,4.20
2022-07-31T20:13:18.104Z,4.30
2022-07-31T20:17:20.461Z,3.80
2022-07-31T20:21:22.915Z,3.80
2022-07-31T20:25:28.615Z,4.30
2022-07-31T20:29:36.640Z,4.10
2022-07-31T20:33:57.033Z,4.40
2022-07-31T20:38:02.008Z,4.40
2022-07-31T20:42:05.463Z,4.40
2022-07-31T20:46:07.991Z,4.40
2022-07-31T20:50:13.743Z,4.00
2022-07-31T20:54:16.144Z,4.40
2022-07-31T20:58:22.928Z,3.70
2022-07-31T21:02:31.510Z,3.30
2022-07-31T21:06:33.878Z,2.90
2022-07-31T21:10:36.561Z,2.90
2022-07-31T21:14:39.150Z,3.30
2022-07-31T21:18:44.195Z,2.70
2022-07-31T21:22:46.485Z,2.40
2022-07-31T21:26:52.485Z,2.90
2022-07-31T21:31:00.430Z,2.20
2022-07-31T21:35:03.236Z,2.50
2022-07-31T21:39:06.074Z,2.70
2022-07-31T21:43:10.086Z,2.70
2022-07-31T21:47:15.118Z,2.20
2022-07-31T21:51:19.665Z,2.50
2022-07-31T21:55:22.038Z,3.00
2022-07-31T21:59:24.532Z,2.50
2022-07-31T22:03:26.913Z,2.40
2022-07-31T22:07:32.186Z,2.20
2022-07-31T22:11:35.561Z,2.20
2022-07-31T22:16:00.861Z,2.40
2022-07-31T22:20:08.487Z,3.10
2022-07-31T22:24:11.182Z,2.60
2022-07-31T22:28:13.798Z,2.80
2022-07-31T22:32:19.238Z,2.20
2022-07-31T22:36:30.871Z,2.00
2022-07-31T22:40:33.620Z,2.30
2022-07-31T22:44:38.277Z,1.90
2022-07-31T22:48:44.053Z,2.10
2022-07-31T22:52:46.851Z,2.30
2022-07-31T22:56:58.690Z,2.20
2022-07-31T23:01:09.773Z,2.60
2022-07-31T23:05:14.927Z,2.40
2022-07-31T23:09:20.630Z,2.10
2022-07-31T23:13:32.997Z,2.30
2022-07-31T23:17:35.646Z,2.50
2022-07-31T23:21:41.354Z,2.80
2022-07-31T23:25:43.953Z,2.30
2022-07-31T23:29:46.520Z,2.50
2022-07-31T23:33:50.001Z,3.40
2022-07-31T23:37:54.177Z,3.10
2022-07-31T23:42:29.164Z,3.20
2022-07-31T23:46:35.236Z,3.30
2022-07-31T23:50:38.798Z,4.10
2022-07-31T23:54:41.289Z,4.30
2022-07-31T23:58:50.798Z,4.00
